Sanger, Texas
Current Conditions -  °F | °C
As of 6:53 AM on Sunday 23 Nov 2014 (Local Time) from KDTO Reporting Station
Haze Haze  
Wind Chill: 52°   Ceiling: Unl
Heat Index: 52°   Visibility: 6mi
Dew Point: 52°   Wind: 7mph
Humidity: 100%   Direction: 150°SSE
Pressure: 29.56"   Gusts: NA
Location:  33.36°N, 97.17°W
Report Text: KDTO 231253Z 15006KT 6SM BR CLR 11/11 A2956 RMK AO2 SLP007 T01110111
Loading
Personal Weather Stations






























Interactive Weather Map New forecast layout! Learn more

10-Day Weather Forecast

Advertisements
Track Severe Weather on mobile